Time;durP1;ratioP1;P1;durP2;ratioP2;P2;SDS_P1;SDS_P2;PMS_P1;PMS_P2;Temp;Humidity;BMP_temperature;BMP_pressure;BME280_temperature;BME280_humidity;BME280_pressure;Samples;Min_cycle;Max_cycle;Signal;HPM_P1;HPM_P2
2022/07/04 00:01:25;;;;;;;4.43;4.03;;;21.80;75.70;;;;;;4867507;29;20291;-62
2022/07/04 00:03:50;;;;;;;5.10;4.60;;;21.80;75.80;;;;;;4851407;29;20191;-62
2022/07/04 00:06:16;;;;;;;4.83;4.33;;;21.80;76.20;;;;;;4882826;29;20205;-61
2022/07/04 00:08:42;;;;;;;4.53;4.13;;;21.80;76.20;;;;;;4866682;29;20196;-61
2022/07/04 00:11:08;;;;;;;4.77;4.37;;;21.70;76.40;;;;;;4867358;29;20214;-61
2022/07/04 00:13:33;;;;;;;4.70;4.13;;;21.70;76.40;;;;;;4866807;29;20223;-61
2022/07/04 00:15:59;;;;;;;5.67;4.80;;;21.60;76.40;;;;;;4863991;29;20195;-62
2022/07/04 00:18:25;;;;;;;5.17;4.60;;;21.60;76.50;;;;;;4858179;29;20205;-62
2022/07/04 00:20:52;;;;;;;4.40;4.00;;;21.60;76.50;;;;;;4866825;29;20204;-62
2022/07/04 00:23:18;;;;;;;5.07;4.60;;;21.60;76.60;;;;;;4866345;29;20295;-62
2022/07/04 00:25:44;;;;;;;4.43;4.03;;;21.60;76.80;;;;;;4878241;29;20271;-62
2022/07/04 00:28:09;;;;;;;5.87;4.87;;;21.50;76.80;;;;;;4851936;29;20243;-61
2022/07/04 00:30:35;;;;;;;6.50;4.53;;;21.50;76.80;;;;;;4862801;29;20207;-61
2022/07/04 00:33:01;;;;;;;5.10;4.60;;;21.50;76.70;;;;;;4866803;29;20246;-62
2022/07/04 00:35:26;;;;;;;5.17;4.43;;;21.50;76.90;;;;;;4867131;29;20193;-62
2022/07/04 00:37:52;;;;;;;5.47;4.97;;;21.50;76.90;;;;;;4851371;29;20248;-62
2022/07/04 00:40:18;;;;;;;5.53;5.00;;;21.40;76.80;;;;;;4882185;29;20196;-62
2022/07/04 00:42:43;;;;;;;4.93;4.10;;;21.40;76.80;;;;;;4851362;29;20206;-62
2022/07/04 00:45:09;;;;;;;6.27;4.60;;;21.40;76.90;;;;;;4870740;29;20236;-61
2022/07/04 00:47:35;;;;;;;4.80;4.40;;;21.40;76.90;;;;;;4866150;29;20204;-63
2022/07/04 00:50:01;;;;;;;4.60;4.30;;;21.40;76.90;;;;;;4891650;29;20196;-62
2022/07/04 00:52:27;;;;;;;5.00;4.60;;;21.40;77.20;;;;;;4866441;29;20311;-62
2022/07/04 00:54:53;;;;;;;5.10;4.43;;;21.30;77.50;;;;;;4866946;29;20199;-62
2022/07/04 00:57:19;;;;;;;4.73;4.33;;;21.30;77.40;;;;;;4866775;29;20199;-62
2022/07/04 00:59:45;;;;;;;5.37;4.97;;;21.30;77.40;;;;;;4880570;29;20196;-61
2022/07/04 01:02:10;;;;;;;5.23;4.83;;;21.30;77.30;;;;;;4850833;29;20195;-62
2022/07/04 01:04:36;;;;;;;5.60;4.70;;;21.30;77.40;;;;;;4860849;29;20195;-62
2022/07/04 01:07:03;;;;;;;5.70;4.63;;;21.20;77.50;;;;;;4880837;29;20194;-62
2022/07/04 01:09:30;;;;;;;4.80;4.40;;;21.20;77.60;;;;;;4881865;29;20254;-62
2022/07/04 01:11:55;;;;;;;6.27;4.70;;;21.20;77.70;;;;;;4850591;29;20219;-62
2022/07/04 01:14:21;;;;;;;5.03;4.63;;;21.20;77.80;;;;;;4866799;29;20204;-61
2022/07/04 01:16:47;;;;;;;5.63;4.90;;;21.10;78.00;;;;;;4866478;29;20188;-63
2022/07/04 01:19:12;;;;;;;5.00;4.43;;;21.00;78.40;;;;;;4848210;29;20196;-62
2022/07/04 01:21:38;;;;;;;5.60;5.10;;;21.00;78.20;;;;;;4847925;29;20260;-62
2022/07/04 01:24:04;;;;;;;6.93;5.17;;;20.90;78.20;;;;;;4867367;29;20192;-62
2022/07/04 01:26:30;;;;;;;6.47;4.80;;;20.90;78.20;;;;;;4869434;29;20203;-62
2022/07/04 01:28:56;;;;;;;5.43;4.93;;;21.00;78.10;;;;;;4871035;29;20248;-62
2022/07/04 01:31:21;;;;;;;5.00;4.60;;;20.90;78.20;;;;;;4869300;29;20204;-62
2022/07/04 01:33:47;;;;;;;5.77;4.60;;;21.00;78.10;;;;;;4854648;29;20224;-62
2022/07/04 01:36:13;;;;;;;5.53;5.07;;;20.90;78.20;;;;;;4885653;29;20192;-61
2022/07/04 01:38:38;;;;;;;4.70;4.27;;;20.90;78.20;;;;;;4894461;29;20193;-63
2022/07/04 01:41:04;;;;;;;5.27;4.87;;;20.90;78.50;;;;;;4844314;29;20203;-62
2022/07/04 01:43:30;;;;;;;5.90;4.47;;;20.90;78.40;;;;;;4870537;29;20195;-62
2022/07/04 01:45:55;;;;;;;5.30;4.80;;;20.80;78.40;;;;;;4879115;29;20204;-62
2022/07/04 01:48:21;;;;;;;5.37;4.97;;;20.80;78.20;;;;;;4847999;29;20256;-62
2022/07/04 01:50:47;;;;;;;5.67;5.07;;;20.80;78.40;;;;;;4869253;29;20200;-62
2022/07/04 01:53:12;;;;;;;5.57;4.97;;;20.80;78.40;;;;;;4856061;29;20216;-62
2022/07/04 01:55:38;;;;;;;5.50;5.10;;;20.80;78.60;;;;;;4862262;29;20200;-62
2022/07/04 01:58:03;;;;;;;6.93;4.90;;;20.80;78.50;;;;;;4901157;29;20192;-62
2022/07/04 02:03:13;;;;;;;4.87;4.47;;;20.80;78.50;;;;;;4887690;29;20228;-61
2022/07/04 02:05:40;;;;;;;5.43;4.93;;;20.80;78.70;;;;;;4890061;29;20200;-62
2022/07/04 02:08:07;;;;;;;5.37;4.60;;;20.80;78.70;;;;;;4884847;29;20234;-62
2022/07/04 02:10:33;;;;;;;4.90;4.50;;;20.80;78.70;;;;;;4884741;29;20200;-62
2022/07/04 02:13:01;;;;;;;5.47;4.97;;;20.70;78.90;;;;;;4884635;29;20264;-62
2022/07/04 02:15:45;;;;;;;5.20;4.80;;;20.70;79.10;;;;;;4901427;29;20203;-63
2022/07/04 02:18:11;;;;;;;5.13;4.73;;;20.70;79.20;;;;;;4900601;29;20192;-62
2022/07/04 02:20:37;;;;;;;5.13;4.73;;;20.70;79.10;;;;;;4852922;29;20203;-62
2022/07/04 02:23:04;;;;;;;5.30;4.83;;;20.60;79.20;;;;;;4868532;29;20207;-62
2022/07/04 02:25:30;;;;;;;4.83;4.43;;;20.60;79.40;;;;;;4865751;29;20193;-62
2022/07/04 02:27:56;;;;;;;5.10;4.70;;;20.60;79.30;;;;;;4849687;29;20263;-62
2022/07/04 02:30:22;;;;;;;6.27;4.60;;;20.50;79.20;;;;;;4857922;29;20333;-62
2022/07/04 02:32:48;;;;;;;5.23;4.83;;;20.50;79.10;;;;;;4878482;29;20230;-62
2022/07/04 02:35:14;;;;;;;5.30;4.73;;;20.40;79.30;;;;;;4868230;29;20200;-62
2022/07/04 02:37:40;;;;;;;5.97;4.73;;;20.40;79.30;;;;;;4877348;29;20270;-62
2022/07/04 02:40:06;;;;;;;4.90;4.50;;;20.40;79.20;;;;;;4866069;29;20204;-63
2022/07/04 02:42:33;;;;;;;4.93;4.53;;;20.40;79.60;;;;;;4888102;29;20260;-62
2022/07/04 02:44:59;;;;;;;5.93;5.10;;;20.40;79.40;;;;;;4863917;29;20202;-62
2022/07/04 02:47:26;;;;;;;5.60;5.10;;;20.40;79.50;;;;;;4872870;29;20199;-62
2022/07/04 02:49:51;;;;;;;6.80;4.97;;;20.40;79.40;;;;;;4879981;29;20196;-62
2022/07/04 02:52:17;;;;;;;6.50;4.87;;;20.40;79.30;;;;;;4867108;29;20224;-62
2022/07/04 02:54:45;;;;;;;5.50;4.97;;;20.30;79.30;;;;;;4878128;29;20184;-62
2022/07/04 02:57:10;;;;;;;5.33;4.90;;;20.30;79.70;;;;;;4882248;29;20184;-62
2022/07/04 02:59:36;;;;;;;5.87;4.63;;;20.30;79.50;;;;;;4892048;29;20196;-62
2022/07/04 03:02:02;;;;;;;5.03;4.63;;;20.30;79.60;;;;;;4851745;29;20231;-61
2022/07/04 03:04:27;;;;;;;5.47;5.07;;;20.20;79.60;;;;;;4867476;29;20226;-62
2022/07/04 03:06:53;;;;;;;5.33;4.80;;;20.30;79.60;;;;;;4865398;29;20219;-62
2022/07/04 03:09:18;;;;;;;6.03;5.43;;;20.20;79.60;;;;;;4880659;29;20204;-62
2022/07/04 03:11:45;;;;;;;5.87;5.30;;;20.20;79.60;;;;;;4868946;29;20226;-62
2022/07/04 03:14:11;;;;;;;5.33;4.90;;;20.10;79.90;;;;;;4867630;29;20245;-62
2022/07/04 03:16:37;;;;;;;5.53;4.97;;;20.10;79.80;;;;;;4868469;29;20202;-62
2022/07/04 03:19:03;;;;;;;5.77;5.27;;;20.10;79.90;;;;;;4883813;29;20282;-62
2022/07/04 03:21:29;;;;;;;6.77;5.00;;;20.10;79.80;;;;;;4866994;29;20332;-62
2022/07/04 03:23:57;;;;;;;5.77;5.27;;;20.10;79.90;;;;;;4883701;29;20246;-62
2022/07/04 03:26:30;;;;;;;5.83;5.23;;;20.00;80.00;;;;;;4868393;29;20226;-62
2022/07/04 03:28:57;;;;;;;5.93;5.43;;;20.00;80.00;;;;;;4892796;29;20243;-63
2022/07/04 03:31:23;;;;;;;6.27;5.50;;;20.00;80.20;;;;;;4867983;29;20207;-62
2022/07/04 03:33:50;;;;;;;5.70;5.20;;;20.00;80.20;;;;;;4868021;29;20215;-61
2022/07/04 03:36:17;;;;;;;5.40;4.93;;;20.00;80.20;;;;;;4899729;29;20191;-62
2022/07/04 03:38:43;;;;;;;5.13;4.60;;;20.00;80.20;;;;;;4893442;29;20199;-62
2022/07/04 03:41:09;;;;;;;4.97;4.57;;;20.00;80.30;;;;;;4848727;29;20273;-62
2022/07/04 03:43:34;;;;;;;4.90;4.50;;;20.00;80.20;;;;;;4862341;29;20232;-62
2022/07/04 03:46:00;;;;;;;7.17;5.53;;;20.00;80.40;;;;;;4882809;29;20319;-62
2022/07/04 03:48:26;;;;;;;6.23;5.73;;;19.90;80.40;;;;;;4852251;29;20303;-62
2022/07/04 03:50:51;;;;;;;7.03;6.17;;;19.90;80.60;;;;;;4867320;29;20195;-61
2022/07/04 03:53:19;;;;;;;7.13;5.93;;;20.00;80.60;;;;;;4864449;29;20223;-62
2022/07/04 03:55:45;;;;;;;5.83;5.33;;;19.90;80.70;;;;;;4878375;29;20200;-62
2022/07/04 03:58:11;;;;;;;6.50;5.50;;;20.00;80.80;;;;;;4872347;29;20192;-63
2022/07/04 04:00:37;;;;;;;6.13;5.53;;;19.90;80.80;;;;;;4873390;29;20206;-62
2022/07/04 04:05:25;;;;;;;6.73;5.37;;;19.90;81.00;;;;;;4864525;29;20216;-61
2022/07/04 04:05:48;;;;;;;5.57;5.13;;;19.90;81.00;;;;;;4884767;29;20202;-62
2022/07/04 04:08:13;;;;;;;5.77;5.27;;;19.90;81.00;;;;;;4852532;29;20204;-62
2022/07/04 04:10:39;;;;;;;6.90;4.90;;;20.00;81.00;;;;;;4873327;29;20222;-62
2022/07/04 04:13:05;;;;;;;5.90;5.40;;;20.00;80.90;;;;;;4868914;29;20220;-62
2022/07/04 04:15:30;;;;;;;5.83;5.40;;;20.10;80.50;;;;;;4844159;29;20231;-62
2022/07/04 04:17:56;;;;;;;6.63;5.73;;;20.10;80.60;;;;;;4858109;29;20282;-62
2022/07/04 04:20:22;;;;;;;5.90;5.40;;;20.20;80.60;;;;;;4872880;29;20285;-62
2022/07/04 04:22:47;;;;;;;6.07;5.23;;;20.20;80.20;;;;;;4865594;29;20253;-62
2022/07/04 04:25:13;;;;;;;5.80;5.17;;;20.10;80.30;;;;;;4882869;29;20263;-62
2022/07/04 04:27:39;;;;;;;5.47;4.97;;;20.20;80.30;;;;;;4853763;29;20296;-63
2022/07/04 04:30:05;;;;;;;6.13;5.53;;;20.20;80.60;;;;;;4871406;29;20233;-62
2022/07/04 04:32:31;;;;;;;5.50;5.10;;;20.20;80.50;;;;;;4865358;29;20220;-61
2022/07/04 04:34:59;;;;;;;6.27;5.70;;;20.30;80.40;;;;;;4842531;29;20214;-61
2022/07/04 04:37:24;;;;;;;6.03;5.17;;;20.30;80.40;;;;;;4851438;29;20196;-62
2022/07/04 04:39:50;;;;;;;6.77;5.20;;;20.30;80.40;;;;;;4868012;29;20195;-61
2022/07/04 04:42:16;;;;;;;6.00;5.50;;;20.30;80.50;;;;;;4833773;29;20203;-62
2022/07/04 04:44:41;;;;;;;5.80;5.30;;;20.40;80.20;;;;;;4842857;29;20291;-62
2022/07/04 04:47:13;;;;;;;6.03;5.43;;;20.40;80.10;;;;;;4837048;29;20491;-66
2022/07/04 04:49:39;;;;;;;6.20;5.60;;;20.50;80.40;;;;;;4877038;29;20221;-69
2022/07/04 04:52:05;;;;;;;6.17;5.30;;;20.50;80.20;;;;;;4862119;29;20354;-65
2022/07/04 04:54:32;;;;;;;5.63;5.13;;;20.50;80.10;;;;;;4881060;29;20201;-65
2022/07/04 04:56:58;;;;;;;5.87;5.37;;;20.50;79.90;;;;;;4853390;29;20196;-65
2022/07/04 04:59:23;;;;;;;6.00;5.50;;;20.60;79.80;;;;;;4850576;29;20204;-65
2022/07/04 05:01:49;;;;;;;5.30;4.80;;;20.70;79.80;;;;;;4863885;29;20214;-65
2022/07/04 05:04:15;;;;;;;7.40;6.13;;;20.70;79.80;;;;;;4869503;29;20200;-65
2022/07/04 05:06:41;;;;;;;6.90;6.10;;;20.60;80.00;;;;;;4854734;29;20261;-65
2022/07/04 05:09:06;;;;;;;6.67;5.80;;;20.70;79.70;;;;;;4872322;29;20299;-64
2022/07/04 05:11:32;;;;;;;7.00;5.53;;;20.70;79.60;;;;;;4857952;29;20232;-65
2022/07/04 05:13:58;;;;;;;8.80;5.57;;;20.80;79.60;;;;;;4873964;29;20188;-65
2022/07/04 05:16:23;;;;;;;8.23;5.20;;;20.80;79.70;;;;;;4858764;29;20200;-65
2022/07/04 05:18:49;;;;;;;5.87;5.33;;;20.80;79.60;;;;;;4873063;29;20228;-65
2022/07/04 05:21:15;;;;;;;8.47;5.60;;;20.80;79.50;;;;;;4881436;29;20214;-65
2022/07/04 05:23:40;;;;;;;5.53;5.03;;;20.80;79.60;;;;;;4851158;29;20200;-65
2022/07/04 05:26:06;;;;;;;7.40;6.00;;;20.90;79.30;;;;;;4846711;29;20267;-65
2022/07/04 05:28:32;;;;;;;6.27;5.03;;;20.90;79.20;;;;;;4878677;29;20244;-65
2022/07/04 05:30:57;;;;;;;5.93;5.33;;;21.00;79.20;;;;;;4866185;29;20242;-65
2022/07/04 05:33:23;;;;;;;5.93;4.87;;;21.00;79.30;;;;;;4865230;29;20212;-65
2022/07/04 05:35:49;;;;;;;6.27;5.67;;;21.00;79.20;;;;;;4875334;29;20211;-65
2022/07/04 05:38:15;;;;;;;6.67;5.07;;;21.00;79.20;;;;;;4880022;29;20292;-65
2022/07/04 05:40:41;;;;;;;5.67;5.00;;;21.10;78.70;;;;;;4870973;29;20204;-65
2022/07/04 05:43:07;;;;;;;5.57;4.90;;;21.10;79.00;;;;;;4849976;29;20204;-65
2022/07/04 05:45:32;;;;;;;10.60;5.40;;;21.20;79.20;;;;;;4880409;29;20203;-65
2022/07/04 05:47:58;;;;;;;7.40;5.63;;;21.30;79.30;;;;;;4853589;29;20200;-65
2022/07/04 05:50:24;;;;;;;5.63;5.13;;;21.40;78.60;;;;;;4883419;29;20287;-65
2022/07/04 05:52:50;;;;;;;6.20;5.60;;;21.50;77.90;;;;;;4884173;29;20219;-65
2022/07/04 05:55:15;;;;;;;5.73;4.97;;;21.70;77.40;;;;;;4867182;29;20200;-65
2022/07/04 05:57:41;;;;;;;6.70;5.60;;;21.80;77.80;;;;;;4884093;29;20191;-65
2022/07/04 06:00:07;;;;;;;7.40;5.37;;;21.90;76.40;;;;;;4874852;29;20239;-65
2022/07/04 06:02:33;;;;;;;10.10;5.43;;;22.00;76.30;;;;;;4868070;29;20208;-65
2022/07/04 06:04:58;;;;;;;6.37;5.20;;;22.10;77.50;;;;;;4883471;29;20259;-65
2022/07/04 06:07:24;;;;;;;7.30;5.43;;;22.20;77.60;;;;;;4852056;29;20274;-65
2022/07/04 06:09:50;;;;;;;5.90;5.23;;;22.30;77.50;;;;;;4883996;29;20260;-65
2022/07/04 06:12:15;;;;;;;6.50;5.47;;;22.30;77.50;;;;;;4867580;29;20254;-65
2022/07/04 06:14:41;;;;;;;6.97;5.23;;;22.40;77.50;;;;;;4865060;29;20222;-65
2022/07/04 06:17:07;;;;;;;5.80;5.30;;;22.50;77.50;;;;;;4868346;29;20202;-66
2022/07/04 06:19:32;;;;;;;9.43;5.47;;;22.60;78.10;;;;;;4853088;29;20202;-65
2022/07/04 06:21:58;;;;;;;6.03;5.43;;;22.70;76.20;;;;;;4883122;29;20200;-65
2022/07/04 06:24:23;;;;;;;7.87;5.80;;;22.70;76.30;;;;;;4883571;29;20199;-65
2022/07/04 06:26:49;;;;;;;6.00;5.40;;;22.80;77.40;;;;;;4849040;29;20196;-65
2022/07/04 06:29:15;;;;;;;6.33;5.63;;;22.90;73.10;;;;;;4852913;29;20232;-65
2022/07/04 06:31:41;;;;;;;6.93;6.00;;;23.10;71.20;;;;;;4867082;29;20192;-65
2022/07/04 06:36:51;;;;;;;10.57;5.47;;;23.30;69.90;;;;;;4886144;29;20194;-65
2022/07/04 06:39:16;;;;;;;9.23;5.50;;;23.40;69.50;;;;;;4868155;29;20195;-65
2022/07/04 06:41:42;;;;;;;7.73;5.33;;;23.50;69.60;;;;;;4848306;29;20219;-65
2022/07/04 06:44:07;;;;;;;5.97;5.37;;;23.60;69.50;;;;;;4883326;29;20278;-65
2022/07/04 06:46:33;;;;;;;7.67;5.43;;;23.60;70.60;;;;;;4880120;29;20200;-65
2022/07/04 06:48:59;;;;;;;9.83;5.47;;;23.70;69.10;;;;;;4893061;29;20188;-65
2022/07/04 06:51:24;;;;;;;6.23;5.63;;;23.70;68.80;;;;;;4857993;29;20204;-66
2022/07/04 06:53:51;;;;;;;6.00;5.00;;;23.70;68.50;;;;;;4851094;29;20219;-65
2022/07/04 06:56:17;;;;;;;7.10;5.20;;;23.70;68.10;;;;;;4865922;29;20195;-65
2022/07/04 06:58:43;;;;;;;7.23;5.73;;;23.80;67.40;;;;;;4882348;29;20201;-65
2022/07/04 07:01:09;;;;;;;6.40;5.47;;;23.80;67.50;;;;;;4881902;29;20192;-65
2022/07/04 07:03:34;;;;;;;6.33;5.33;;;23.90;68.10;;;;;;4881724;29;20203;-65
2022/07/04 07:06:02;;;;;;;6.50;5.07;;;23.90;67.50;;;;;;4877927;29;20189;-65
2022/07/04 07:08:29;;;;;;;7.07;5.70;;;24.00;67.20;;;;;;4861477;29;20196;-65
2022/07/04 07:11:12;;;;;;;5.50;4.90;;;24.20;66.40;;;;;;4872733;29;20192;-65
2022/07/04 07:13:41;;;;;;;7.57;5.20;;;24.20;65.70;;;;;;4860268;29;20278;-65
2022/07/04 07:16:07;;;;;;;6.17;5.00;;;24.20;65.60;;;;;;4874707;29;20196;-65
2022/07/04 07:18:33;;;;;;;6.17;5.27;;;24.30;65.20;;;;;;4869583;29;20294;-65
2022/07/04 07:20:58;;;;;;;5.90;5.40;;;24.30;65.70;;;;;;4838632;29;20295;-65
2022/07/04 07:23:24;;;;;;;6.47;5.07;;;24.40;65.10;;;;;;4849215;29;20208;-65
2022/07/04 07:25:50;;;;;;;6.83;5.23;;;24.50;65.50;;;;;;4862264;29;20208;-65
2022/07/04 07:28:15;;;;;;;7.57;5.20;;;24.50;65.10;;;;;;4887226;29;20244;-65
2022/07/04 07:30:41;;;;;;;5.67;5.10;;;24.60;66.00;;;;;;4862698;29;20303;-65
2022/07/04 07:33:07;;;;;;;5.60;4.87;;;24.70;67.50;;;;;;4883054;29;20224;-65
2022/07/04 07:35:32;;;;;;;4.60;4.10;;;24.80;65.70;;;;;;4866892;29;20188;-65
2022/07/04 07:37:58;;;;;;;4.80;4.40;;;24.80;63.30;;;;;;4843090;29;20207;-65
2022/07/04 07:40:24;;;;;;;4.97;4.23;;;24.90;61.50;;;;;;4848617;29;20225;-65
2022/07/04 07:42:50;;;;;;;7.00;4.10;;;25.10;60.80;;;;;;4854508;29;20234;-65
2022/07/04 07:45:16;;;;;;;3.87;3.50;;;25.20;60.40;;;;;;4866538;29;20196;-65
2022/07/04 07:47:41;;;;;;;4.67;3.37;;;25.30;58.60;;;;;;4866907;29;20200;-65
2022/07/04 07:50:07;;;;;;;4.23;3.60;;;25.40;58.80;;;;;;4863202;29;20251;-65
2022/07/04 07:52:33;;;;;;;6.23;3.60;;;25.50;57.90;;;;;;4855488;29;20219;-65
2022/07/04 07:54:59;;;;;;;7.17;3.37;;;25.50;56.40;;;;;;4880384;29;20297;-65
2022/07/04 07:57:25;;;;;;;4.20;3.27;;;25.60;54.80;;;;;;4867818;29;20200;-65
2022/07/04 07:59:50;;;;;;;7.97;3.80;;;25.70;53.80;;;;;;4850994;29;20248;-65
2022/07/04 08:02:16;;;;;;;11.20;4.03;;;25.80;53.40;;;;;;4847990;29;20204;-65
2022/07/04 08:04:41;;;;;;;5.27;3.00;;;25.90;53.10;;;;;;4839763;29;20320;-65
2022/07/04 08:07:14;;;;;;;3.33;2.93;;;26.00;51.60;;;;;;4866212;29;20290;-65
2022/07/04 08:09:40;;;;;;;3.93;2.80;;;25.90;53.70;;;;;;4862854;29;20200;-65
2022/07/04 08:12:07;;;;;;;2.90;2.63;;;25.80;53.60;;;;;;4859148;29;20271;-65
2022/07/04 08:14:34;;;;;;;3.70;2.80;;;25.80;53.60;;;;;;4885044;29;20187;-65
2022/07/04 08:17:00;;;;;;;2.70;2.50;;;25.70;54.50;;;;;;4866332;29;20202;-65
2022/07/04 08:19:26;;;;;;;3.57;2.90;;;25.70;54.20;;;;;;4880858;29;20206;-65
2022/07/04 08:21:52;;;;;;;3.27;2.77;;;25.60;57.50;;;;;;4859406;29;20184;-66
2022/07/04 08:24:18;;;;;;;2.73;2.53;;;25.60;57.80;;;;;;4881731;29;20200;-65
2022/07/04 08:26:45;;;;;;;3.47;3.17;;;25.50;55.70;;;;;;4863376;29;20195;-65
2022/07/04 08:29:10;;;;;;;5.30;3.03;;;25.40;56.30;;;;;;4872673;29;20199;-65
2022/07/04 08:31:36;;;;;;;3.60;2.97;;;25.50;54.60;;;;;;4839164;29;20192;-65
2022/07/04 08:34:02;;;;;;;4.33;3.20;;;25.50;56.10;;;;;;4863992;29;20223;-65
2022/07/04 08:36:27;;;;;;;5.73;3.17;;;25.60;54.40;;;;;;4866499;29;20259;-65
2022/07/04 08:38:53;;;;;;;3.33;3.03;;;25.70;54.30;;;;;;4881802;29;20187;-65
2022/07/04 08:41:19;;;;;;;3.10;2.80;;;25.80;54.50;;;;;;4878207;29;20282;-65
2022/07/04 08:43:48;;;;;;;5.73;3.37;;;25.90;53.90;;;;;;4881109;29;20191;-65
2022/07/04 08:46:17;;;;;;;5.60;3.70;;;25.90;53.90;;;;;;4865760;29;20207;-65
2022/07/04 08:48:52;;;;;;;9.17;3.70;;;25.90;54.10;;;;;;4865268;29;20202;-65
2022/07/04 08:51:33;;;;;;;3.57;3.23;;;25.90;53.80;;;;;;4877385;29;20200;-65
2022/07/04 08:54:01;;;;;;;3.60;3.10;;;25.90;54.80;;;;;;4878979;29;20229;-65
2022/07/04 08:59:14;;;;;;;3.77;3.10;;;26.00;54.60;;;;;;4878678;29;20234;-65
2022/07/04 09:01:42;;;;;;;3.63;3.10;;;26.00;54.50;;;;;;4865146;29;20206;-65
2022/07/04 09:04:09;;;;;;;3.30;3.00;;;26.00;54.60;;;;;;4895404;29;20198;-65
2022/07/04 09:06:35;;;;;;;3.73;3.30;;;26.10;55.40;;;;;;4888720;29;20288;-65
2022/07/04 09:09:01;;;;;;;3.63;3.20;;;26.10;55.00;;;;;;4863700;29;20278;-65
2022/07/04 09:11:27;;;;;;;5.47;3.77;;;26.10;55.60;;;;;;4862100;29;20197;-65
2022/07/04 09:13:52;;;;;;;4.30;3.57;;;26.10;55.30;;;;;;4846209;29;20316;-65
2022/07/04 09:16:18;;;;;;;6.53;3.67;;;26.10;56.10;;;;;;4878816;29;20291;-65
2022/07/04 09:18:44;;;;;;;3.70;3.40;;;26.10;55.90;;;;;;4865642;29;20195;-65
2022/07/04 09:21:10;;;;;;;4.77;3.47;;;26.10;55.80;;;;;;4863238;29;20196;-65
2022/07/04 09:23:41;;;;;;;3.50;3.20;;;26.00;55.20;;;;;;4850249;29;20259;-65
2022/07/04 09:26:17;;;;;;;5.37;4.00;;;26.00;56.10;;;;;;4894067;29;20184;-65
2022/07/04 09:28:56;;;;;;;7.00;4.43;;;26.00;56.40;;;;;;4880740;29;20245;-65
2022/07/04 09:31:28;;;;;;;4.07;3.67;;;25.90;56.50;;;;;;4878442;29;20198;-65
2022/07/04 09:33:58;;;;;;;4.13;3.03;;;25.90;56.80;;;;;;4871203;29;20207;-65
2022/07/04 09:36:29;;;;;;;5.07;4.10;;;25.80;56.50;;;;;;4861729;29;20192;-65
2022/07/04 09:39:09;;;;;;;5.23;3.30;;;25.80;56.80;;;;;;4864971;29;20192;-65
2022/07/04 09:41:58;;;;;;;4.10;3.80;;;25.80;57.00;;;;;;4870388;29;20257;-65
2022/07/04 09:44:26;;;;;;;6.20;4.00;;;25.80;57.30;;;;;;4876580;29;20195;-66
2022/07/04 09:46:52;;;;;;;4.97;3.53;;;25.70;56.70;;;;;;4898360;29;20244;-65
2022/07/04 09:49:18;;;;;;;5.43;3.50;;;25.80;57.00;;;;;;4883777;29;20268;-65
2022/07/04 09:51:49;;;;;;;7.03;3.87;;;25.80;57.40;;;;;;4851457;29;20199;-65
2022/07/04 09:54:15;;;;;;;6.20;3.70;;;25.80;59.10;;;;;;4875765;29;20198;-65
2022/07/04 09:56:47;;;;;;;3.83;3.47;;;25.90;57.90;;;;;;4883216;29;20188;-65
2022/07/04 09:59:13;;;;;;;4.77;3.53;;;26.00;58.70;;;;;;4884014;29;20267;-65
2022/07/04 10:01:39;;;;;;;3.80;3.47;;;26.00;58.70;;;;;;4865172;29;20201;-65
2022/07/04 10:04:06;;;;;;;5.00;3.63;;;26.10;59.90;;;;;;4868868;29;20272;-66
2022/07/04 10:06:33;;;;;;;3.87;3.30;;;26.20;58.90;;;;;;4880460;29;20216;-66
2022/07/04 10:09:15;;;;;;;5.87;3.80;;;26.20;57.20;;;;;;4881564;29;20195;-65
2022/07/04 10:11:43;;;;;;;6.23;3.50;;;26.30;58.30;;;;;;4872333;29;20215;-65
2022/07/04 10:14:11;;;;;;;4.13;3.43;;;26.40;57.20;;;;;;4882055;29;20199;-65
2022/07/04 10:16:38;;;;;;;5.27;4.20;;;26.60;57.30;;;;;;4854502;29;20192;-65
2022/07/04 10:19:06;;;;;;;5.60;3.50;;;26.60;57.40;;;;;;4882845;29;20191;-66
2022/07/04 10:21:32;;;;;;;5.10;3.60;;;26.70;57.00;;;;;;4861858;29;20193;-65
2022/07/04 10:23:58;;;;;;;5.17;3.60;;;26.70;56.10;;;;;;4880096;29;20204;-66
2022/07/04 10:26:24;;;;;;;6.13;3.40;;;26.60;55.10;;;;;;4856938;29;20199;-66
2022/07/04 10:28:52;;;;;;;5.77;4.00;;;26.60;55.20;;;;;;4868255;29;20240;-65
2022/07/04 10:31:23;;;;;;;4.27;2.87;;;26.50;55.30;;;;;;4865505;29;20303;-66
2022/07/04 10:33:49;;;;;;;5.73;3.67;;;26.50;55.50;;;;;;4879529;29;20306;-65
2022/07/04 10:36:17;;;;;;;3.80;3.40;;;26.40;55.40;;;;;;4883136;29;20207;-65
2022/07/04 10:38:52;;;;;;;4.80;3.20;;;26.30;55.30;;;;;;4880022;29;20248;-66
2022/07/04 10:41:21;;;;;;;3.93;3.47;;;26.30;57.80;;;;;;4881802;29;20219;-65
2022/07/04 10:43:59;;;;;;;4.27;3.30;;;26.30;56.30;;;;;;4900059;29;20188;-65
2022/07/04 10:46:29;;;;;;;4.07;3.50;;;26.30;55.30;;;;;;4894393;29;20196;-65
2022/07/04 10:49:00;;;;;;;3.70;3.20;;;26.20;56.50;;;;;;4895642;29;20187;-65
2022/07/04 10:51:47;;;;;;;4.97;3.33;;;26.20;57.30;;;;;;4885937;29;20195;-65
2022/07/04 10:54:24;;;;;;;5.67;3.50;;;26.30;56.50;;;;;;4866750;29;20245;-65
2022/07/04 10:56:55;;;;;;;6.93;3.70;;;26.30;57.10;;;;;;4884818;29;20272;-65
2022/07/04 10:59:26;;;;;;;6.20;3.60;;;26.30;56.10;;;;;;4876440;29;20339;-66
2022/07/04 11:02:05;;;;;;;4.70;3.23;;;26.40;56.20;;;;;;4877289;29;20191;-65
2022/07/04 11:04:52;;;;;;;6.00;3.60;;;26.50;56.80;;;;;;4883196;29;20271;-66
2022/07/04 11:07:42;;;;;;;3.70;3.40;;;26.50;56.30;;;;;;4873762;29;20202;-65
2022/07/04 11:10:11;;;;;;;4.43;3.50;;;26.70;57.30;;;;;;4856175;29;20199;-65
2022/07/04 11:12:55;;;;;;;7.00;3.40;;;26.80;56.90;;;;;;4880084;29;20222;-65
2022/07/04 11:15:33;;;;;;;5.53;3.37;;;27.00;55.70;;;;;;4897156;29;20212;-65
2022/07/04 11:18:08;;;;;;;4.73;3.77;;;27.00;57.80;;;;;;4880739;29;20206;-65
2022/07/04 11:20:38;;;;;;;5.80;3.40;;;27.20;56.20;;;;;;4899332;29;20183;-65
2022/07/04 11:23:08;;;;;;;4.47;4.07;;;27.40;55.50;;;;;;4880766;29;20198;-65
2022/07/04 11:25:34;;;;;;;4.00;3.60;;;27.60;55.40;;;;;;4864231;29;20200;-65
2022/07/04 11:28:22;;;;;;;5.33;3.20;;;27.80;55.90;;;;;;4866848;29;20268;-66
2022/07/04 11:30:52;;;;;;;5.43;3.90;;;27.90;54.40;;;;;;4873232;29;20204;-65
2022/07/04 11:33:23;;;;;;;3.77;3.17;;;28.00;53.20;;;;;;4875575;29;20318;-63
2022/07/04 11:36:08;;;;;;;4.97;3.23;;;28.10;54.00;;;;;;4875057;29;20200;-64
2022/07/04 11:39:04;;;;;;;5.70;3.70;;;28.20;53.60;;;;;;4881831;29;20196;-63
2022/07/04 11:47:21;;;;;;;4.17;3.47;;;28.40;52.30;;;;;;4886466;29;20222;-63
2022/07/04 11:49:49;;;;;;;3.83;3.47;;;28.50;53.10;;;;;;4882224;29;20199;-63
2022/07/04 11:52:17;;;;;;;6.30;3.50;;;28.60;52.80;;;;;;4881274;29;20287;-63
2022/07/04 11:54:44;;;;;;;5.83;4.30;;;28.50;52.80;;;;;;4881984;29;20283;-63
2022/07/04 11:57:28;;;;;;;4.70;3.70;;;28.70;53.90;;;;;;4890190;29;20282;-64
2022/07/04 11:59:53;;;;;;;4.03;3.60;;;28.80;52.70;;;;;;4898507;29;20195;-65
2022/07/04 12:02:19;;;;;;;5.13;3.30;;;28.90;49.80;;;;;;4896513;29;20202;-64
2022/07/04 12:04:45;;;;;;;3.73;3.43;;;29.20;51.10;;;;;;4864047;29;20208;-63
2022/07/04 12:07:13;;;;;;;5.53;3.50;;;29.30;52.30;;;;;;4868992;29;20199;-64
2022/07/04 12:09:40;;;;;;;3.97;3.57;;;29.30;50.70;;;;;;4875905;29;20201;-63
2022/07/04 12:12:06;;;;;;;4.37;3.30;;;29.60;52.70;;;;;;4865605;29;20192;-63
2022/07/04 12:14:32;;;;;;;3.33;3.10;;;30.20;50.90;;;;;;4873458;29;20288;-64
2022/07/04 12:17:18;;;;;;;4.03;3.30;;;30.70;49.20;;;;;;4852994;29;20284;-64
2022/07/04 12:20:13;;;;;;;5.00;2.87;;;31.60;45.00;;;;;;4877588;29;20196;-64
2022/07/04 12:22:41;;;;;;;3.57;3.27;;;32.10;43.40;;;;;;4855676;29;20214;-64
2022/07/04 12:25:19;;;;;;;5.17;3.67;;;31.80;41.70;;;;;;4872087;29;20260;-64
2022/07/04 12:28:02;;;;;;;3.10;2.90;;;31.50;44.60;;;;;;4866655;29;20250;-64
2022/07/04 12:30:34;;;;;;;3.33;3.03;;;31.60;46.60;;;;;;4875552;29;20204;-64
2022/07/04 12:33:03;;;;;;;3.40;3.00;;;31.60;45.10;;;;;;4880607;29;20291;-64
2022/07/04 12:35:34;;;;;;;2.80;2.60;;;32.20;44.20;;;;;;4867547;29;20312;-64
2022/07/04 12:38:17;;;;;;;3.60;2.93;;;32.80;43.00;;;;;;4871949;29;20188;-64
2022/07/04 12:41:15;;;;;;;5.30;2.60;;;33.00;43.90;;;;;;4873511;29;20192;-64
2022/07/04 12:43:43;;;;;;;3.00;2.70;;;33.70;43.20;;;;;;4875365;29;20200;-64
2022/07/04 12:46:29;;;;;;;2.80;2.60;;;33.70;38.90;;;;;;4872784;29;20192;-64
2022/07/04 12:48:57;;;;;;;2.90;2.70;;;33.40;42.70;;;;;;4868349;29;20199;-64
2022/07/04 12:51:40;;;;;;;8.00;2.70;;;33.20;44.50;;;;;;4863290;29;20282;-64
2022/07/04 12:54:11;;;;;;;3.77;3.00;;;32.80;45.30;;;;;;4879286;29;20207;-64
2022/07/04 12:56:42;;;;;;;2.90;2.70;;;32.60;45.00;;;;;;4871449;29;20275;-64
2022/07/04 12:59:12;;;;;;;3.47;2.83;;;32.40;46.20;;;;;;4895049;29;20240;-64
2022/07/04 13:01:38;;;;;;;3.20;2.90;;;32.10;46.20;;;;;;4875460;29;20202;-64
2022/07/04 13:04:05;;;;;;;3.37;3.07;;;31.80;47.00;;;;;;4865626;29;20197;-64